Strona główna
METAR-TAF:

Lotnisko :

Poznań, Polska

Port lotniczy Poznań-Ławica

Szerokość geograficzna: 52-25N, Długość geograficzna: 016-50E, wysokość: 86 m

Aktualna obserwacja pogody

Raport powstał 39 minut temu, godzina 15:00 UTC
Wiatr 7 kt od południowy wschód, zmienny między wschód i południowo-południowy wschód
Temperatura 20°C
Wilgotność 35%
Ciśnienie 1022 hPa
Widzialność 10 km lub więcej
Brak chmur poniżej 1500 m i brak chmur cumulonimbus

METAR: EPPO 251500Z 13007KT 100V160 CAVOK 20/04 Q1022

czas: 17:39 (15:39 UTC)

Prognoza

Raport powstał 4 godziny i 9 minut temu, godzina 11:30 UTC
Prognoza ważna od 25 godzina 12 UTC do 26 godzina 12 UTC
Wiatr 8 kt od południowy wschód
Widzialność 10 km lub więcej
Brak chmur poniżej 1500 m i brak chmur cumulonimbus
Prawdopodobieństwo 30%
od 26 godzina 00 UTC do 26 godzina 07 UTC
Widzialność: 2500 m
zamglenie

TAF: EPPO 251130Z 2512/2612 13008KT CAVOK PROB30 2600/2607 2500 BR

METAR-TAF

Obserwacja i prognoza pogody dla ponad 4000 lotnisk (raport METAR i TAF).

Dostępne stacje oznaczono żółtymi i czerwonymi punktami na mapie.

Najedź kursorem aby zobaczyć nazwę stacji.

Kliknij aby zobaczyć obserwacje i prognozy pogody.

Aby zmienić mapę: kliknij na zielony przycisk z czarnym krzyżykiem, aby powiększyć; na zielony przycisk z myślnikiem, aby pomniejszyć; na zielone strzałki, aby przejść do map sąsiednich.


METAR-TAF: